Durango, CO (81301)

12:34 PM MDT on August 24, 2016 (GMT -0600)
Falls Creek Ranch | | Change Station

Elev 7560 ft 37.29 °N, 107.87 °W | Updated 5 minutes ago

Clear
Clear
63.6 °F
Feels Like 63.6 °F
N
4.0
Wind Variable Wind from South
Gusts 8.0 mph

Today
High -- | Low -- °F
--% Chance of Precip.
Yesterday
High -- | Low -- °F
Precip. -- in
Pressure 30.14 in
Visibility 10.0 miles
Clouds Clear
Dew Point 50 °F
Humidity 61%
Rainfall 0.00 in
Snow Depth Not available.
6:35 AM 7:50 PM
Waning Gibbous, 54% visible
METAR KDRO 241753Z AUTO VRB05KT 10SM CLR 17/11 A3031 RMK AO2 SLP204 T01670106 10167 20106 50001
Pressure 30.14 in
Visibility 10.0 miles
Clouds Clear
Dew Point 50 °F
Humidity 61%
Rainfall 0.00 in
Snow Depth Not available.
6:35 AM 7:50 PM
Waning Gibbous, 54% visible
METAR KDRO 241753Z AUTO VRB05KT 10SM CLR 17/11 A3031 RMK AO2 SLP204 T01670106 10167 20106 50001

10-Day Weather Forecast

Almanac

Astronomy

Aug. 24, 2016 Rise Set
Actual Time
Civil Twilight
Nautical Twilight
Astronomical Twilight
Moon
Length of Visible Light
Length of Day
Tomorrow will be .
, % of the Moon is Illuminated

Today's Extremes

State Highs State Lows

Community

WunderPhotos

Upload Photos

1,934,664 photos uploaded!

WunderBlog® & News

Nearby

Air Quality

  Air Quality AQ Index Pollutant
Not available.

Snow Depth

Station Depth Elevation

Earthquake Activity

City Distance Mag. Time & Date
Minimum magnitude displayed is 2.5.

Coastal Water Temperatures

Place Temperature

Stations

Nearby Weather Stations

Station Location Temp. Windchill Dew Point Humidity Wind Precip. Elev Updated Type
                   

Watches & Warnings

There are currently no watches in effect.